sensor_id;sensor_type;location;lat;lon;timestamp;P1;durP1;ratioP1;P2;durP2;ratioP2
16543;SDS011;8384;47.996;7.786;2024-01-11T00:01:08;45.10;;;25.90;;
16543;SDS011;8384;47.996;7.786;2024-01-11T00:03:35;38.30;;;24.85;;
16543;SDS011;8384;47.996;7.786;2024-01-11T00:06:00;43.53;;;26.20;;
16543;SDS011;8384;47.996;7.786;2024-01-11T00:08:26;37.83;;;24.20;;
16543;SDS011;8384;47.996;7.786;2024-01-11T00:10:51;43.90;;;24.17;;
16543;SDS011;8384;47.996;7.786;2024-01-11T00:13:16;37.33;;;23.07;;
16543;SDS011;8384;47.996;7.786;2024-01-11T00:15:41;41.27;;;25.57;;
16543;SDS011;8384;47.996;7.786;2024-01-11T00:18:07;37.33;;;23.53;;
16543;SDS011;8384;47.996;7.786;2024-01-11T00:20:32;34.70;;;23.23;;
16543;SDS011;8384;47.996;7.786;2024-01-11T00:22:57;39.60;;;24.77;;
16543;SDS011;8384;47.996;7.786;2024-01-11T00:25:23;39.87;;;23.83;;
16543;SDS011;8384;47.996;7.786;2024-01-11T00:27:48;39.97;;;24.00;;
16543;SDS011;8384;47.996;7.786;2024-01-11T00:30:13;42.03;;;24.80;;
16543;SDS011;8384;47.996;7.786;2024-01-11T00:32:39;39.10;;;24.67;;
16543;SDS011;8384;47.996;7.786;2024-01-11T00:35:04;42.60;;;26.13;;
16543;SDS011;8384;47.996;7.786;2024-01-11T00:37:30;37.72;;;24.60;;
16543;SDS011;8384;47.996;7.786;2024-01-11T00:39:55;40.37;;;24.47;;
16543;SDS011;8384;47.996;7.786;2024-01-11T00:42:21;37.20;;;23.83;;
16543;SDS011;8384;47.996;7.786;2024-01-11T00:44:46;36.00;;;23.50;;
16543;SDS011;8384;47.996;7.786;2024-01-11T00:47:11;35.03;;;22.97;;
16543;SDS011;8384;47.996;7.786;2024-01-11T00:49:37;38.23;;;23.40;;
16543;SDS011;8384;47.996;7.786;2024-01-11T00:52:02;34.73;;;22.37;;
16543;SDS011;8384;47.996;7.786;2024-01-11T00:54:27;40.20;;;24.10;;
16543;SDS011;8384;47.996;7.786;2024-01-11T00:56:53;37.33;;;22.67;;
16543;SDS011;8384;47.996;7.786;2024-01-11T00:59:18;42.20;;;24.93;;
16543;SDS011;8384;47.996;7.786;2024-01-11T01:01:49;35.07;;;23.10;;
16543;SDS011;8384;47.996;7.786;2024-01-11T01:04:15;39.90;;;23.40;;
16543;SDS011;8384;47.996;7.786;2024-01-11T01:06:40;40.03;;;24.10;;
16543;SDS011;8384;47.996;7.786;2024-01-11T01:09:06;41.10;;;23.80;;
16543;SDS011;8384;47.996;7.786;2024-01-11T01:11:31;38.23;;;23.57;;
16543;SDS011;8384;47.996;7.786;2024-01-11T01:13:57;40.70;;;23.27;;
16543;SDS011;8384;47.996;7.786;2024-01-11T01:16:22;34.77;;;22.27;;
16543;SDS011;8384;47.996;7.786;2024-01-11T01:18:47;37.30;;;23.43;;
16543;SDS011;8384;47.996;7.786;2024-01-11T01:21:13;36.23;;;21.43;;
16543;SDS011;8384;47.996;7.786;2024-01-11T01:23:38;37.03;;;21.90;;
16543;SDS011;8384;47.996;7.786;2024-01-11T01:26:03;34.67;;;21.97;;
16543;SDS011;8384;47.996;7.786;2024-01-11T01:28:28;35.00;;;21.10;;
16543;SDS011;8384;47.996;7.786;2024-01-11T01:30:54;38.97;;;22.37;;
16543;SDS011;8384;47.996;7.786;2024-01-11T01:33:19;33.33;;;21.50;;
16543;SDS011;8384;47.996;7.786;2024-01-11T01:35:44;37.30;;;21.80;;
16543;SDS011;8384;47.996;7.786;2024-01-11T01:38:11;34.20;;;21.88;;
16543;SDS011;8384;47.996;7.786;2024-01-11T01:40:37;35.03;;;21.10;;
16543;SDS011;8384;47.996;7.786;2024-01-11T01:43:06;32.45;;;19.88;;
16543;SDS011;8384;47.996;7.786;2024-01-11T01:45:32;34.05;;;20.90;;
16543;SDS011;8384;47.996;7.786;2024-01-11T01:47:57;37.47;;;22.13;;
16543;SDS011;8384;47.996;7.786;2024-01-11T01:50:22;33.80;;;20.70;;
16543;SDS011;8384;47.996;7.786;2024-01-11T01:52:48;36.30;;;20.80;;
16543;SDS011;8384;47.996;7.786;2024-01-11T01:55:14;34.17;;;19.70;;
16543;SDS011;8384;47.996;7.786;2024-01-11T01:57:40;30.63;;;20.33;;
16543;SDS011;8384;47.996;7.786;2024-01-11T02:00:08;34.10;;;21.08;;
16543;SDS011;8384;47.996;7.786;2024-01-11T02:02:36;37.05;;;20.52;;
16543;SDS011;8384;47.996;7.786;2024-01-11T02:05:04;35.47;;;20.48;;
16543;SDS011;8384;47.996;7.786;2024-01-11T02:07:31;34.17;;;21.20;;
16543;SDS011;8384;47.996;7.786;2024-01-11T02:09:56;29.43;;;18.20;;
16543;SDS011;8384;47.996;7.786;2024-01-11T02:12:22;35.30;;;20.90;;
16543;SDS011;8384;47.996;7.786;2024-01-11T02:14:49;33.42;;;19.33;;
16543;SDS011;8384;47.996;7.786;2024-01-11T02:17:14;32.23;;;19.40;;
16543;SDS011;8384;47.996;7.786;2024-01-11T02:19:40;33.23;;;19.43;;
16543;SDS011;8384;47.996;7.786;2024-01-11T02:22:08;31.20;;;19.83;;
16543;SDS011;8384;47.996;7.786;2024-01-11T02:24:39;31.48;;;18.80;;
16543;SDS011;8384;47.996;7.786;2024-01-11T02:27:04;33.07;;;20.13;;
16543;SDS011;8384;47.996;7.786;2024-01-11T02:29:30;29.20;;;18.60;;
16543;SDS011;8384;47.996;7.786;2024-01-11T02:31:56;34.38;;;19.65;;
16543;SDS011;8384;47.996;7.786;2024-01-11T02:34:23;31.63;;;19.75;;
16543;SDS011;8384;47.996;7.786;2024-01-11T02:36:49;30.95;;;20.15;;
16543;SDS011;8384;47.996;7.786;2024-01-11T02:39:15;27.90;;;18.53;;
16543;SDS011;8384;47.996;7.786;2024-01-11T02:41:43;38.58;;;20.42;;
16543;SDS011;8384;47.996;7.786;2024-01-11T02:44:09;35.33;;;21.07;;
16543;SDS011;8384;47.996;7.786;2024-01-11T02:46:34;35.43;;;20.33;;
16543;SDS011;8384;47.996;7.786;2024-01-11T02:48:59;31.13;;;18.73;;
16543;SDS011;8384;47.996;7.786;2024-01-11T02:51:24;32.87;;;19.73;;
16543;SDS011;8384;47.996;7.786;2024-01-11T02:53:50;29.20;;;19.17;;
16543;SDS011;8384;47.996;7.786;2024-01-11T02:56:15;30.57;;;19.30;;
16543;SDS011;8384;47.996;7.786;2024-01-11T02:58:40;38.47;;;20.70;;
16543;SDS011;8384;47.996;7.786;2024-01-11T03:01:05;33.60;;;20.03;;
16543;SDS011;8384;47.996;7.786;2024-01-11T03:03:31;33.63;;;19.03;;
16543;SDS011;8384;47.996;7.786;2024-01-11T03:05:57;33.50;;;19.27;;
16543;SDS011;8384;47.996;7.786;2024-01-11T03:08:22;29.23;;;19.80;;
16543;SDS011;8384;47.996;7.786;2024-01-11T03:10:48;33.77;;;18.90;;
16543;SDS011;8384;47.996;7.786;2024-01-11T03:13:13;28.47;;;19.17;;
16543;SDS011;8384;47.996;7.786;2024-01-11T03:15:38;33.73;;;20.00;;
16543;SDS011;8384;47.996;7.786;2024-01-11T03:18:04;31.27;;;20.57;;
16543;SDS011;8384;47.996;7.786;2024-01-11T03:20:29;29.83;;;18.53;;
16543;SDS011;8384;47.996;7.786;2024-01-11T03:22:54;34.17;;;20.10;;
16543;SDS011;8384;47.996;7.786;2024-01-11T03:25:20;31.40;;;19.03;;
16543;SDS011;8384;47.996;7.786;2024-01-11T03:27:45;32.90;;;19.03;;
16543;SDS011;8384;47.996;7.786;2024-01-11T03:30:11;32.90;;;19.73;;
16543;SDS011;8384;47.996;7.786;2024-01-11T03:32:37;38.78;;;22.17;;
16543;SDS011;8384;47.996;7.786;2024-01-11T03:35:04;28.48;;;18.25;;
16543;SDS011;8384;47.996;7.786;2024-01-11T03:37:31;29.23;;;18.17;;
16543;SDS011;8384;47.996;7.786;2024-01-11T03:39:57;29.33;;;18.60;;
16543;SDS011;8384;47.996;7.786;2024-01-11T03:42:22;29.07;;;18.17;;
16543;SDS011;8384;47.996;7.786;2024-01-11T03:44:48;30.70;;;17.17;;
16543;SDS011;8384;47.996;7.786;2024-01-11T03:47:14;33.77;;;18.87;;
16543;SDS011;8384;47.996;7.786;2024-01-11T03:49:39;29.53;;;18.40;;
16543;SDS011;8384;47.996;7.786;2024-01-11T03:52:04;28.30;;;17.67;;
16543;SDS011;8384;47.996;7.786;2024-01-11T03:54:30;30.30;;;18.30;;
16543;SDS011;8384;47.996;7.786;2024-01-11T03:56:55;30.53;;;19.20;;
16543;SDS011;8384;47.996;7.786;2024-01-11T03:59:21;30.60;;;17.97;;
16543;SDS011;8384;47.996;7.786;2024-01-11T04:01:46;28.80;;;17.47;;
16543;SDS011;8384;47.996;7.786;2024-01-11T04:04:11;26.53;;;17.13;;
16543;SDS011;8384;47.996;7.786;2024-01-11T04:06:37;34.60;;;18.77;;
16543;SDS011;8384;47.996;7.786;2024-01-11T04:09:02;27.83;;;17.80;;
16543;SDS011;8384;47.996;7.786;2024-01-11T04:11:28;28.50;;;18.20;;
16543;SDS011;8384;47.996;7.786;2024-01-11T04:13:54;31.60;;;19.38;;
16543;SDS011;8384;47.996;7.786;2024-01-11T04:16:19;30.43;;;18.20;;
16543;SDS011;8384;47.996;7.786;2024-01-11T04:18:45;29.97;;;19.20;;
16543;SDS011;8384;47.996;7.786;2024-01-11T04:21:26;28.13;;;17.87;;
16543;SDS011;8384;47.996;7.786;2024-01-11T04:23:55;32.33;;;18.13;;
16543;SDS011;8384;47.996;7.786;2024-01-11T04:26:21;24.95;;;16.88;;
16543;SDS011;8384;47.996;7.786;2024-01-11T04:28:46;28.33;;;17.93;;
16543;SDS011;8384;47.996;7.786;2024-01-11T04:31:12;26.70;;;17.65;;
16543;SDS011;8384;47.996;7.786;2024-01-11T04:33:42;27.42;;;17.38;;
16543;SDS011;8384;47.996;7.786;2024-01-11T04:36:08;31.27;;;18.67;;
16543;SDS011;8384;47.996;7.786;2024-01-11T04:38:34;37.07;;;18.37;;
16543;SDS011;8384;47.996;7.786;2024-01-11T04:40:59;34.43;;;19.37;;
16543;SDS011;8384;47.996;7.786;2024-01-11T04:43:25;32.60;;;18.97;;
16543;SDS011;8384;47.996;7.786;2024-01-11T04:45:51;36.10;;;19.80;;
16543;SDS011;8384;47.996;7.786;2024-01-11T04:48:16;32.67;;;17.50;;
16543;SDS011;8384;47.996;7.786;2024-01-11T04:50:42;33.67;;;19.07;;
16543;SDS011;8384;47.996;7.786;2024-01-11T04:53:08;38.95;;;19.48;;
16543;SDS011;8384;47.996;7.786;2024-01-11T04:55:33;34.67;;;18.97;;
16543;SDS011;8384;47.996;7.786;2024-01-11T04:57:59;29.13;;;18.17;;
16543;SDS011;8384;47.996;7.786;2024-01-11T05:00:24;30.60;;;18.03;;
16543;SDS011;8384;47.996;7.786;2024-01-11T05:02:49;31.43;;;18.87;;
16543;SDS011;8384;47.996;7.786;2024-01-11T05:05:15;28.03;;;17.93;;
16543;SDS011;8384;47.996;7.786;2024-01-11T05:07:40;37.17;;;20.40;;
16543;SDS011;8384;47.996;7.786;2024-01-11T05:10:05;29.03;;;18.07;;
16543;SDS011;8384;47.996;7.786;2024-01-11T05:12:31;31.57;;;17.57;;
16543;SDS011;8384;47.996;7.786;2024-01-11T05:14:56;32.33;;;18.33;;
16543;SDS011;8384;47.996;7.786;2024-01-11T05:17:21;29.07;;;16.77;;
16543;SDS011;8384;47.996;7.786;2024-01-11T05:19:47;34.23;;;18.53;;
16543;SDS011;8384;47.996;7.786;2024-01-11T05:22:12;31.13;;;19.27;;
16543;SDS011;8384;47.996;7.786;2024-01-11T05:24:38;31.27;;;18.47;;
16543;SDS011;8384;47.996;7.786;2024-01-11T05:27:03;29.43;;;17.97;;
16543;SDS011;8384;47.996;7.786;2024-01-11T05:29:28;31.47;;;18.33;;
16543;SDS011;8384;47.996;7.786;2024-01-11T05:31:54;27.30;;;16.43;;
16543;SDS011;8384;47.996;7.786;2024-01-11T05:34:19;31.00;;;18.00;;
16543;SDS011;8384;47.996;7.786;2024-01-11T05:36:44;28.33;;;18.17;;
16543;SDS011;8384;47.996;7.786;2024-01-11T05:39:10;27.63;;;16.77;;
16543;SDS011;8384;47.996;7.786;2024-01-11T05:41:35;29.87;;;18.07;;
16543;SDS011;8384;47.996;7.786;2024-01-11T05:44:00;28.53;;;16.97;;
16543;SDS011;8384;47.996;7.786;2024-01-11T05:46:26;30.37;;;18.40;;
16543;SDS011;8384;47.996;7.786;2024-01-11T05:48:51;30.57;;;18.17;;
16543;SDS011;8384;47.996;7.786;2024-01-11T05:51:16;28.63;;;16.87;;
16543;SDS011;8384;47.996;7.786;2024-01-11T05:53:41;26.87;;;16.73;;
16543;SDS011;8384;47.996;7.786;2024-01-11T05:56:07;27.30;;;17.10;;
16543;SDS011;8384;47.996;7.786;2024-01-11T05:58:35;30.27;;;18.48;;
16543;SDS011;8384;47.996;7.786;2024-01-11T06:01:02;32.13;;;17.17;;
16543;SDS011;8384;47.996;7.786;2024-01-11T06:03:28;31.60;;;16.70;;
16543;SDS011;8384;47.996;7.786;2024-01-11T06:05:54;29.17;;;17.02;;
16543;SDS011;8384;47.996;7.786;2024-01-11T06:08:19;31.50;;;16.10;;
16543;SDS011;8384;47.996;7.786;2024-01-11T06:10:45;29.17;;;18.20;;
16543;SDS011;8384;47.996;7.786;2024-01-11T06:13:10;24.83;;;17.53;;
16543;SDS011;8384;47.996;7.786;2024-01-11T06:15:35;25.47;;;17.03;;
16543;SDS011;8384;47.996;7.786;2024-01-11T06:18:01;28.20;;;17.30;;
16543;SDS011;8384;47.996;7.786;2024-01-11T06:20:26;25.10;;;17.90;;
16543;SDS011;8384;47.996;7.786;2024-01-11T06:22:51;25.27;;;16.50;;
16543;SDS011;8384;47.996;7.786;2024-01-11T06:25:16;27.80;;;17.87;;
16543;SDS011;8384;47.996;7.786;2024-01-11T06:27:43;33.30;;;19.42;;
16543;SDS011;8384;47.996;7.786;2024-01-11T06:30:08;33.60;;;17.90;;
16543;SDS011;8384;47.996;7.786;2024-01-11T06:32:34;33.77;;;19.40;;
16543;SDS011;8384;47.996;7.786;2024-01-11T06:35:00;36.67;;;20.63;;
16543;SDS011;8384;47.996;7.786;2024-01-11T06:37:25;33.77;;;20.33;;
16543;SDS011;8384;47.996;7.786;2024-01-11T06:39:50;29.57;;;19.70;;
16543;SDS011;8384;47.996;7.786;2024-01-11T06:42:15;36.23;;;19.70;;
16543;SDS011;8384;47.996;7.786;2024-01-11T06:44:41;37.83;;;19.93;;
16543;SDS011;8384;47.996;7.786;2024-01-11T06:47:06;37.50;;;21.37;;
16543;SDS011;8384;47.996;7.786;2024-01-11T06:49:31;33.37;;;20.93;;
16543;SDS011;8384;47.996;7.786;2024-01-11T06:51:57;32.77;;;20.83;;
16543;SDS011;8384;47.996;7.786;2024-01-11T06:54:22;35.80;;;21.30;;
16543;SDS011;8384;47.996;7.786;2024-01-11T06:56:47;33.70;;;20.00;;
16543;SDS011;8384;47.996;7.786;2024-01-11T06:59:12;33.20;;;20.13;;
16543;SDS011;8384;47.996;7.786;2024-01-11T07:01:38;31.83;;;19.80;;
16543;SDS011;8384;47.996;7.786;2024-01-11T07:04:03;36.13;;;19.73;;
16543;SDS011;8384;47.996;7.786;2024-01-11T07:06:28;29.33;;;19.10;;
16543;SDS011;8384;47.996;7.786;2024-01-11T07:08:53;38.07;;;22.77;;
16543;SDS011;8384;47.996;7.786;2024-01-11T07:11:19;38.03;;;22.40;;
16543;SDS011;8384;47.996;7.786;2024-01-11T07:13:44;32.13;;;20.70;;
16543;SDS011;8384;47.996;7.786;2024-01-11T07:16:09;29.77;;;17.63;;
16543;SDS011;8384;47.996;7.786;2024-01-11T07:18:34;32.63;;;21.13;;
16543;SDS011;8384;47.996;7.786;2024-01-11T07:21:00;37.60;;;21.23;;
16543;SDS011;8384;47.996;7.786;2024-01-11T07:23:26;40.90;;;21.47;;
16543;SDS011;8384;47.996;7.786;2024-01-11T07:25:51;36.60;;;22.40;;
16543;SDS011;8384;47.996;7.786;2024-01-11T07:28:17;33.97;;;21.30;;
16543;SDS011;8384;47.996;7.786;2024-01-11T07:30:42;39.50;;;22.40;;
16543;SDS011;8384;47.996;7.786;2024-01-11T07:33:08;35.13;;;21.90;;
16543;SDS011;8384;47.996;7.786;2024-01-11T07:35:34;38.30;;;21.00;;
16543;SDS011;8384;47.996;7.786;2024-01-11T07:37:59;35.53;;;22.90;;
16543;SDS011;8384;47.996;7.786;2024-01-11T07:40:25;37.00;;;23.23;;
16543;SDS011;8384;47.996;7.786;2024-01-11T07:42:50;38.57;;;22.83;;
16543;SDS011;8384;47.996;7.786;2024-01-11T07:45:16;34.27;;;21.77;;
16543;SDS011;8384;47.996;7.786;2024-01-11T07:47:41;35.40;;;21.43;;
16543;SDS011;8384;47.996;7.786;2024-01-11T07:50:07;42.87;;;23.20;;
16543;SDS011;8384;47.996;7.786;2024-01-11T07:52:34;43.08;;;23.75;;
16543;SDS011;8384;47.996;7.786;2024-01-11T07:55:00;36.13;;;23.80;;
16543;SDS011;8384;47.996;7.786;2024-01-11T07:57:31;40.65;;;24.60;;
16543;SDS011;8384;47.996;7.786;2024-01-11T07:59:57;36.73;;;23.07;;
16543;SDS011;8384;47.996;7.786;2024-01-11T08:02:24;41.50;;;23.80;;
16543;SDS011;8384;47.996;7.786;2024-01-11T08:04:49;38.03;;;24.60;;
16543;SDS011;8384;47.996;7.786;2024-01-11T08:07:14;43.30;;;26.37;;
16543;SDS011;8384;47.996;7.786;2024-01-11T08:09:40;45.20;;;25.63;;
16543;SDS011;8384;47.996;7.786;2024-01-11T08:12:10;43.67;;;25.48;;
16543;SDS011;8384;47.996;7.786;2024-01-11T08:14:35;52.33;;;28.50;;
16543;SDS011;8384;47.996;7.786;2024-01-11T08:17:01;50.50;;;27.93;;
16543;SDS011;8384;47.996;7.786;2024-01-11T08:19:26;54.27;;;29.83;;
16543;SDS011;8384;47.996;7.786;2024-01-11T08:21:52;52.63;;;31.50;;
16543;SDS011;8384;47.996;7.786;2024-01-11T08:24:21;38.67;;;25.00;;
16543;SDS011;8384;47.996;7.786;2024-01-11T08:26:46;42.57;;;24.13;;
16543;SDS011;8384;47.996;7.786;2024-01-11T08:29:12;46.13;;;26.13;;
16543;SDS011;8384;47.996;7.786;2024-01-11T08:31:38;46.33;;;29.95;;
16543;SDS011;8384;47.996;7.786;2024-01-11T08:34:03;48.70;;;29.90;;
16543;SDS011;8384;47.996;7.786;2024-01-11T08:36:32;49.43;;;29.37;;
16543;SDS011;8384;47.996;7.786;2024-01-11T08:39:04;47.05;;;27.10;;
16543;SDS011;8384;47.996;7.786;2024-01-11T08:41:33;45.33;;;26.98;;
16543;SDS011;8384;47.996;7.786;2024-01-11T08:44:02;47.13;;;28.10;;
16543;SDS011;8384;47.996;7.786;2024-01-11T08:46:28;50.57;;;32.67;;
16543;SDS011;8384;47.996;7.786;2024-01-11T08:48:55;51.78;;;31.55;;
16543;SDS011;8384;47.996;7.786;2024-01-11T08:51:21;48.35;;;31.80;;
16543;SDS011;8384;47.996;7.786;2024-01-11T08:53:47;49.43;;;32.63;;
16543;SDS011;8384;47.996;7.786;2024-01-11T08:56:12;54.83;;;33.67;;
16543;SDS011;8384;47.996;7.786;2024-01-11T08:58:39;55.93;;;31.87;;
16543;SDS011;8384;47.996;7.786;2024-01-11T09:01:05;44.95;;;28.50;;
16543;SDS011;8384;47.996;7.786;2024-01-11T09:03:32;45.80;;;29.87;;
16543;SDS011;8384;47.996;7.786;2024-01-11T09:05:57;44.20;;;29.07;;
16543;SDS011;8384;47.996;7.786;2024-01-11T09:08:23;47.90;;;29.17;;
16543;SDS011;8384;47.996;7.786;2024-01-11T09:10:48;41.37;;;27.27;;
16543;SDS011;8384;47.996;7.786;2024-01-11T09:13:13;44.97;;;28.27;;
16543;SDS011;8384;47.996;7.786;2024-01-11T09:15:40;41.23;;;26.33;;
16543;SDS011;8384;47.996;7.786;2024-01-11T09:18:06;43.33;;;27.37;;
16543;SDS011;8384;47.996;7.786;2024-01-11T09:20:31;39.80;;;27.00;;
16543;SDS011;8384;47.996;7.786;2024-01-11T09:22:56;44.73;;;28.33;;
16543;SDS011;8384;47.996;7.786;2024-01-11T09:25:21;41.87;;;26.30;;
16543;SDS011;8384;47.996;7.786;2024-01-11T09:27:47;45.67;;;28.17;;
16543;SDS011;8384;47.996;7.786;2024-01-11T09:30:12;46.53;;;29.17;;
16543;SDS011;8384;47.996;7.786;2024-01-11T09:32:38;48.10;;;28.77;;
16543;SDS011;8384;47.996;7.786;2024-01-11T09:35:03;43.87;;;28.17;;
16543;SDS011;8384;47.996;7.786;2024-01-11T09:37:29;42.37;;;28.03;;
16543;SDS011;8384;47.996;7.786;2024-01-11T09:39:55;40.87;;;26.67;;
16543;SDS011;8384;47.996;7.786;2024-01-11T09:42:21;40.83;;;25.77;;
16543;SDS011;8384;47.996;7.786;2024-01-11T09:44:46;43.07;;;27.80;;
16543;SDS011;8384;47.996;7.786;2024-01-11T09:47:11;41.73;;;27.87;;
16543;SDS011;8384;47.996;7.786;2024-01-11T09:49:41;40.50;;;27.00;;
16543;SDS011;8384;47.996;7.786;2024-01-11T09:52:08;41.37;;;27.30;;
16543;SDS011;8384;47.996;7.786;2024-01-11T09:54:35;36.80;;;26.43;;
16543;SDS011;8384;47.996;7.786;2024-01-11T09:57:02;42.23;;;25.97;;
16543;SDS011;8384;47.996;7.786;2024-01-11T09:59:29;40.70;;;25.30;;
16543;SDS011;8384;47.996;7.786;2024-01-11T10:01:55;36.60;;;24.60;;
16543;SDS011;8384;47.996;7.786;2024-01-11T10:04:20;34.77;;;23.37;;
16543;SDS011;8384;47.996;7.786;2024-01-11T10:06:46;38.10;;;24.07;;
16543;SDS011;8384;47.996;7.786;2024-01-11T10:09:13;36.83;;;23.90;;
16543;SDS011;8384;47.996;7.786;2024-01-11T10:11:38;30.57;;;21.47;;
16543;SDS011;8384;47.996;7.786;2024-01-11T10:14:03;34.30;;;21.93;;
16543;SDS011;8384;47.996;7.786;2024-01-11T10:16:30;35.93;;;22.40;;
16543;SDS011;8384;47.996;7.786;2024-01-11T10:18:56;37.13;;;24.30;;
16543;SDS011;8384;47.996;7.786;2024-01-11T10:21:22;39.97;;;24.70;;
16543;SDS011;8384;47.996;7.786;2024-01-11T10:23:51;35.43;;;23.37;;
16543;SDS011;8384;47.996;7.786;2024-01-11T10:26:17;37.70;;;24.47;;
16543;SDS011;8384;47.996;7.786;2024-01-11T10:28:45;37.63;;;24.57;;
16543;SDS011;8384;47.996;7.786;2024-01-11T10:31:11;36.87;;;24.93;;
16543;SDS011;8384;47.996;7.786;2024-01-11T10:33:37;34.90;;;24.80;;
16543;SDS011;8384;47.996;7.786;2024-01-11T10:36:03;37.00;;;25.03;;
16543;SDS011;8384;47.996;7.786;2024-01-11T10:38:32;38.60;;;27.00;;
16543;SDS011;8384;47.996;7.786;2024-01-11T10:41:00;39.07;;;25.37;;
16543;SDS011;8384;47.996;7.786;2024-01-11T10:43:29;39.40;;;26.47;;
16543;SDS011;8384;47.996;7.786;2024-01-11T10:45:57;33.00;;;24.47;;
16543;SDS011;8384;47.996;7.786;2024-01-11T10:48:25;39.10;;;25.77;;
16543;SDS011;8384;47.996;7.786;2024-01-11T10:50:54;37.37;;;26.20;;
16543;SDS011;8384;47.996;7.786;2024-01-11T10:53:28;35.37;;;25.93;;
16543;SDS011;8384;47.996;7.786;2024-01-11T10:56:12;36.00;;;25.03;;
16543;SDS011;8384;47.996;7.786;2024-01-11T10:58:43;37.47;;;24.77;;
16543;SDS011;8384;47.996;7.786;2024-01-11T11:01:10;39.63;;;25.63;;
16543;SDS011;8384;47.996;7.786;2024-01-11T11:03:36;37.23;;;25.10;;
16543;SDS011;8384;47.996;7.786;2024-01-11T11:06:03;36.17;;;25.50;;
16543;SDS011;8384;47.996;7.786;2024-01-11T11:08:30;36.93;;;23.93;;
16543;SDS011;8384;47.996;7.786;2024-01-11T11:10:56;33.50;;;22.70;;
16543;SDS011;8384;47.996;7.786;2024-01-11T11:13:23;36.87;;;23.93;;
16543;SDS011;8384;47.996;7.786;2024-01-11T11:15:49;35.83;;;24.97;;
16543;SDS011;8384;47.996;7.786;2024-01-11T11:18:15;37.07;;;24.87;;
16543;SDS011;8384;47.996;7.786;2024-01-11T11:20:41;37.83;;;25.60;;
16543;SDS011;8384;47.996;7.786;2024-01-11T11:23:08;35.17;;;24.70;;
16543;SDS011;8384;47.996;7.786;2024-01-11T11:25:38;39.33;;;25.20;;
16543;SDS011;8384;47.996;7.786;2024-01-11T11:28:06;36.43;;;23.87;;
16543;SDS011;8384;47.996;7.786;2024-01-11T11:30:36;34.90;;;23.73;;
16543;SDS011;8384;47.996;7.786;2024-01-11T11:33:16;37.13;;;24.53;;
16543;SDS011;8384;47.996;7.786;2024-01-11T11:35:46;39.63;;;25.00;;
16543;SDS011;8384;47.996;7.786;2024-01-11T11:38:18;35.80;;;24.20;;
16543;SDS011;8384;47.996;7.786;2024-01-11T11:40:46;39.27;;;24.27;;
16543;SDS011;8384;47.996;7.786;2024-01-11T11:43:13;47.43;;;28.00;;
16543;SDS011;8384;47.996;7.786;2024-01-11T11:45:41;44.63;;;28.67;;
16543;SDS011;8384;47.996;7.786;2024-01-11T11:51:06;47.70;;;30.37;;
16543;SDS011;8384;47.996;7.786;2024-01-11T11:53:36;45.57;;;28.80;;
16543;SDS011;8384;47.996;7.786;2024-01-11T11:56:02;39.07;;;24.40;;
16543;SDS011;8384;47.996;7.786;2024-01-11T11:58:28;42.63;;;26.87;;
16543;SDS011;8384;47.996;7.786;2024-01-11T12:00:54;40.57;;;27.97;;
16543;SDS011;8384;47.996;7.786;2024-01-11T12:03:23;43.77;;;27.63;;
16543;SDS011;8384;47.996;7.786;2024-01-11T12:05:53;40.47;;;26.03;;
16543;SDS011;8384;47.996;7.786;2024-01-11T12:08:19;38.93;;;26.00;;
16543;SDS011;8384;47.996;7.786;2024-01-11T12:10:46;42.30;;;27.70;;
16543;SDS011;8384;47.996;7.786;2024-01-11T12:13:11;43.53;;;27.23;;
16543;SDS011;8384;47.996;7.786;2024-01-11T12:15:37;41.10;;;27.90;;
16543;SDS011;8384;47.996;7.786;2024-01-11T12:18:02;44.33;;;27.93;;
16543;SDS011;8384;47.996;7.786;2024-01-11T12:20:28;43.40;;;28.07;;
16543;SDS011;8384;47.996;7.786;2024-01-11T12:22:54;37.57;;;27.47;;
16543;SDS011;8384;47.996;7.786;2024-01-11T12:25:19;42.43;;;27.80;;
16543;SDS011;8384;47.996;7.786;2024-01-11T12:27:46;40.87;;;28.37;;
16543;SDS011;8384;47.996;7.786;2024-01-11T12:30:12;40.83;;;28.80;;
16543;SDS011;8384;47.996;7.786;2024-01-11T12:32:41;38.27;;;27.80;;
16543;SDS011;8384;47.996;7.786;2024-01-11T12:35:07;37.67;;;27.67;;
16543;SDS011;8384;47.996;7.786;2024-01-11T12:37:32;40.73;;;27.27;;
16543;SDS011;8384;47.996;7.786;2024-01-11T12:39:58;38.90;;;25.43;;
16543;SDS011;8384;47.996;7.786;2024-01-11T12:42:23;37.63;;;24.77;;
16543;SDS011;8384;47.996;7.786;2024-01-11T12:44:49;35.13;;;23.93;;
16543;SDS011;8384;47.996;7.786;2024-01-11T12:47:15;38.33;;;24.93;;
16543;SDS011;8384;47.996;7.786;2024-01-11T12:49:43;40.50;;;24.73;;
16543;SDS011;8384;47.996;7.786;2024-01-11T12:52:20;37.20;;;25.93;;
16543;SDS011;8384;47.996;7.786;2024-01-11T12:54:45;39.30;;;26.30;;
16543;SDS011;8384;47.996;7.786;2024-01-11T12:57:20;40.33;;;26.80;;
16543;SDS011;8384;47.996;7.786;2024-01-11T12:59:46;42.13;;;29.07;;
16543;SDS011;8384;47.996;7.786;2024-01-11T13:02:11;39.63;;;27.77;;
16543;SDS011;8384;47.996;7.786;2024-01-11T13:04:40;39.13;;;27.17;;
16543;SDS011;8384;47.996;7.786;2024-01-11T13:07:06;43.20;;;28.77;;
16543;SDS011;8384;47.996;7.786;2024-01-11T13:09:32;39.17;;;30.00;;
16543;SDS011;8384;47.996;7.786;2024-01-11T13:11:57;44.23;;;29.87;;
16543;SDS011;8384;47.996;7.786;2024-01-11T13:14:23;39.57;;;29.03;;
16543;SDS011;8384;47.996;7.786;2024-01-11T13:16:48;39.67;;;28.53;;
16543;SDS011;8384;47.996;7.786;2024-01-11T13:19:13;34.43;;;24.97;;
16543;SDS011;8384;47.996;7.786;2024-01-11T13:21:39;36.33;;;24.37;;
16543;SDS011;8384;47.996;7.786;2024-01-11T13:24:05;32.87;;;23.90;;
16543;SDS011;8384;47.996;7.786;2024-01-11T13:26:32;31.80;;;23.20;;
16543;SDS011;8384;47.996;7.786;2024-01-11T13:28:57;33.77;;;22.63;;
16543;SDS011;8384;47.996;7.786;2024-01-11T13:31:23;31.53;;;22.40;;
16543;SDS011;8384;47.996;7.786;2024-01-11T13:33:48;33.37;;;24.03;;
16543;SDS011;8384;47.996;7.786;2024-01-11T13:36:14;29.67;;;22.60;;
16543;SDS011;8384;47.996;7.786;2024-01-11T13:38:39;30.70;;;23.50;;
16543;SDS011;8384;47.996;7.786;2024-01-11T13:41:05;35.10;;;25.00;;
16543;SDS011;8384;47.996;7.786;2024-01-11T13:43:33;35.53;;;25.43;;
16543;SDS011;8384;47.996;7.786;2024-01-11T13:45:59;35.97;;;26.90;;
16543;SDS011;8384;47.996;7.786;2024-01-11T13:48:25;34.27;;;26.53;;
16543;SDS011;8384;47.996;7.786;2024-01-11T13:50:50;33.90;;;26.47;;
16543;SDS011;8384;47.996;7.786;2024-01-11T13:53:15;39.10;;;27.27;;
16543;SDS011;8384;47.996;7.786;2024-01-11T13:55:41;35.70;;;26.30;;
16543;SDS011;8384;47.996;7.786;2024-01-11T13:58:06;38.07;;;27.20;;
16543;SDS011;8384;47.996;7.786;2024-01-11T14:00:32;37.17;;;25.77;;
16543;SDS011;8384;47.996;7.786;2024-01-11T14:02:57;36.37;;;25.43;;
16543;SDS011;8384;47.996;7.786;2024-01-11T14:05:22;36.83;;;25.57;;
16543;SDS011;8384;47.996;7.786;2024-01-11T14:07:47;37.07;;;25.50;;
16543;SDS011;8384;47.996;7.786;2024-01-11T14:10:14;37.53;;;26.60;;
16543;SDS011;8384;47.996;7.786;2024-01-11T14:12:40;35.57;;;26.37;;
16543;SDS011;8384;47.996;7.786;2024-01-11T14:15:06;38.33;;;27.07;;
16543;SDS011;8384;47.996;7.786;2024-01-11T14:17:36;40.97;;;27.37;;
16543;SDS011;8384;47.996;7.786;2024-01-11T14:20:02;38.07;;;25.53;;
16543;SDS011;8384;47.996;7.786;2024-01-11T14:22:28;42.60;;;27.70;;
16543;SDS011;8384;47.996;7.786;2024-01-11T14:24:53;38.57;;;27.30;;
16543;SDS011;8384;47.996;7.786;2024-01-11T14:27:21;40.70;;;27.27;;
16543;SDS011;8384;47.996;7.786;2024-01-11T14:29:47;39.70;;;26.67;;